sensor_id;sensor_type;location;lat;lon;timestamp;P1;durP1;ratioP1;P2;durP2;ratioP2
18267;SDS011;9260;49.998;19.880;2022-11-20T00:07:35;225.13;;;117.53;;
18267;SDS011;9260;49.998;19.880;2022-11-20T00:17:40;217.10;;;113.67;;
18267;SDS011;9260;49.998;19.880;2022-11-20T00:27:44;222.27;;;116.73;;
18267;SDS011;9260;49.998;19.880;2022-11-20T00:37:49;229.60;;;114.93;;
18267;SDS011;9260;49.998;19.880;2022-11-20T00:47:52;236.63;;;121.27;;
18267;SDS011;9260;49.998;19.880;2022-11-20T00:57:57;208.00;;;112.70;;
18267;SDS011;9260;49.998;19.880;2022-11-20T01:08:04;221.83;;;116.20;;
18267;SDS011;9260;49.998;19.880;2022-11-20T01:18:09;208.03;;;108.10;;
18267;SDS011;9260;49.998;19.880;2022-11-20T01:28:13;231.83;;;117.43;;
18267;SDS011;9260;49.998;19.880;2022-11-20T01:38:18;227.63;;;117.67;;
18267;SDS011;9260;49.998;19.880;2022-11-20T01:48:24;241.67;;;123.67;;
18267;SDS011;9260;49.998;19.880;2022-11-20T01:58:35;231.30;;;118.17;;
18267;SDS011;9260;49.998;19.880;2022-11-20T02:08:50;238.10;;;119.73;;
18267;SDS011;9260;49.998;19.880;2022-11-20T02:18:56;225.80;;;116.27;;
18267;SDS011;9260;49.998;19.880;2022-11-20T02:29:04;220.70;;;116.93;;
18267;SDS011;9260;49.998;19.880;2022-11-20T02:39:08;222.17;;;111.67;;
18267;SDS011;9260;49.998;19.880;2022-11-20T02:49:15;219.80;;;110.43;;
18267;SDS011;9260;49.998;19.880;2022-11-20T02:59:19;209.10;;;115.07;;
18267;SDS011;9260;49.998;19.880;2022-11-20T03:09:25;218.07;;;117.50;;
18267;SDS011;9260;49.998;19.880;2022-11-20T03:19:29;214.13;;;112.43;;
18267;SDS011;9260;49.998;19.880;2022-11-20T03:29:34;214.63;;;112.83;;
18267;SDS011;9260;49.998;19.880;2022-11-20T03:39:38;209.50;;;114.00;;
18267;SDS011;9260;49.998;19.880;2022-11-20T03:49:43;187.37;;;108.13;;
18267;SDS011;9260;49.998;19.880;2022-11-20T03:59:46;207.97;;;114.07;;
18267;SDS011;9260;49.998;19.880;2022-11-20T04:09:51;218.00;;;114.33;;
18267;SDS011;9260;49.998;19.880;2022-11-20T04:19:54;215.27;;;113.50;;
18267;SDS011;9260;49.998;19.880;2022-11-20T04:29:59;223.53;;;119.37;;
18267;SDS011;9260;49.998;19.880;2022-11-20T04:40:03;227.07;;;117.80;;
18267;SDS011;9260;49.998;19.880;2022-11-20T04:50:09;214.63;;;109.27;;
18267;SDS011;9260;49.998;19.880;2022-11-20T05:00:14;211.27;;;111.33;;
18267;SDS011;9260;49.998;19.880;2022-11-20T05:10:20;197.20;;;108.87;;
18267;SDS011;9260;49.998;19.880;2022-11-20T05:20:23;198.67;;;109.93;;
18267;SDS011;9260;49.998;19.880;2022-11-20T05:30:28;205.27;;;115.23;;
18267;SDS011;9260;49.998;19.880;2022-11-20T05:40:31;204.03;;;107.50;;
18267;SDS011;9260;49.998;19.880;2022-11-20T05:50:36;201.77;;;109.27;;
18267;SDS011;9260;49.998;19.880;2022-11-20T06:00:40;199.47;;;113.83;;
18267;SDS011;9260;49.998;19.880;2022-11-20T06:10:45;208.83;;;117.20;;
18267;SDS011;9260;49.998;19.880;2022-11-20T06:20:48;216.83;;;134.70;;
18267;SDS011;9260;49.998;19.880;2022-11-20T06:30:53;206.50;;;127.03;;
18267;SDS011;9260;49.998;19.880;2022-11-20T06:40:57;211.60;;;119.00;;
18267;SDS011;9260;49.998;19.880;2022-11-20T06:51:03;213.77;;;120.73;;
18267;SDS011;9260;49.998;19.880;2022-11-20T07:01:09;205.50;;;111.80;;
18267;SDS011;9260;49.998;19.880;2022-11-20T07:11:17;191.47;;;106.47;;
18267;SDS011;9260;49.998;19.880;2022-11-20T07:21:20;232.60;;;114.90;;
18267;SDS011;9260;49.998;19.880;2022-11-20T07:31:25;229.07;;;115.27;;
18267;SDS011;9260;49.998;19.880;2022-11-20T07:41:28;226.73;;;116.43;;
18267;SDS011;9260;49.998;19.880;2022-11-20T07:51:33;233.23;;;115.10;;
18267;SDS011;9260;49.998;19.880;2022-11-20T08:01:37;231.17;;;115.57;;
18267;SDS011;9260;49.998;19.880;2022-11-20T08:11:42;232.40;;;116.87;;
18267;SDS011;9260;49.998;19.880;2022-11-20T08:22:03;243.23;;;119.97;;
18267;SDS011;9260;49.998;19.880;2022-11-20T08:32:08;261.27;;;124.40;;
18267;SDS011;9260;49.998;19.880;2022-11-20T08:42:11;270.23;;;131.40;;
18267;SDS011;9260;49.998;19.880;2022-11-20T08:52:16;283.53;;;129.53;;
18267;SDS011;9260;49.998;19.880;2022-11-20T09:02:20;270.37;;;129.87;;
18267;SDS011;9260;49.998;19.880;2022-11-20T09:12:24;283.43;;;131.23;;
18267;SDS011;9260;49.998;19.880;2022-11-20T09:22:28;282.00;;;134.37;;
18267;SDS011;9260;49.998;19.880;2022-11-20T09:32:35;284.00;;;132.70;;
18267;SDS011;9260;49.998;19.880;2022-11-20T09:42:41;267.23;;;124.37;;
18267;SDS011;9260;49.998;19.880;2022-11-20T09:52:57;280.90;;;133.27;;
18267;SDS011;9260;49.998;19.880;2022-11-20T10:03:16;285.03;;;134.20;;
18267;SDS011;9260;49.998;19.880;2022-11-20T10:13:31;295.53;;;137.40;;
18267;SDS011;9260;49.998;19.880;2022-11-20T10:23:56;277.27;;;131.53;;
18267;SDS011;9260;49.998;19.880;2022-11-20T10:34:20;279.73;;;134.23;;
18267;SDS011;9260;49.998;19.880;2022-11-20T10:44:29;281.90;;;136.47;;
18267;SDS011;9260;49.998;19.880;2022-11-20T10:54:59;271.93;;;134.70;;
18267;SDS011;9260;49.998;19.880;2022-11-20T11:05:27;297.63;;;150.50;;
18267;SDS011;9260;49.998;19.880;2022-11-20T11:15:40;280.30;;;136.20;;
18267;SDS011;9260;49.998;19.880;2022-11-20T11:25:55;278.07;;;136.93;;
18267;SDS011;9260;49.998;19.880;2022-11-20T11:36:01;283.63;;;144.17;;
18267;SDS011;9260;49.998;19.880;2022-11-20T11:46:28;280.80;;;150.13;;
18267;SDS011;9260;49.998;19.880;2022-11-20T11:56:36;268.87;;;131.93;;
18267;SDS011;9260;49.998;19.880;2022-11-20T12:06:40;265.33;;;130.33;;
18267;SDS011;9260;49.998;19.880;2022-11-20T12:16:51;265.17;;;129.47;;
18267;SDS011;9260;49.998;19.880;2022-11-20T12:27:01;271.63;;;126.70;;
18267;SDS011;9260;49.998;19.880;2022-11-20T12:37:33;278.60;;;130.77;;
18267;SDS011;9260;49.998;19.880;2022-11-20T12:47:51;267.53;;;129.90;;
18267;SDS011;9260;49.998;19.880;2022-11-20T12:58:12;265.80;;;126.83;;
18267;SDS011;9260;49.998;19.880;2022-11-20T13:08:27;267.67;;;133.47;;
18267;SDS011;9260;49.998;19.880;2022-11-20T13:18:36;270.10;;;133.67;;
18267;SDS011;9260;49.998;19.880;2022-11-20T13:28:44;279.93;;;139.70;;
18267;SDS011;9260;49.998;19.880;2022-11-20T13:38:51;265.53;;;125.83;;
18267;SDS011;9260;49.998;19.880;2022-11-20T13:49:05;287.07;;;142.93;;
18267;SDS011;9260;49.998;19.880;2022-11-20T13:59:15;293.57;;;149.97;;
18267;SDS011;9260;49.998;19.880;2022-11-20T14:09:33;285.40;;;132.27;;
18267;SDS011;9260;49.998;19.880;2022-11-20T14:19:39;282.37;;;134.07;;
18267;SDS011;9260;49.998;19.880;2022-11-20T14:29:44;284.63;;;139.83;;
18267;SDS011;9260;49.998;19.880;2022-11-20T14:39:52;288.33;;;148.03;;
18267;SDS011;9260;49.998;19.880;2022-11-20T14:50:00;262.13;;;124.80;;
18267;SDS011;9260;49.998;19.880;2022-11-20T15:00:19;257.37;;;124.13;;
18267;SDS011;9260;49.998;19.880;2022-11-20T15:10:25;261.03;;;128.60;;
18267;SDS011;9260;49.998;19.880;2022-11-20T15:20:31;262.77;;;126.17;;
18267;SDS011;9260;49.998;19.880;2022-11-20T15:30:36;251.47;;;119.33;;
18267;SDS011;9260;49.998;19.880;2022-11-20T15:40:41;254.63;;;129.80;;
18267;SDS011;9260;49.998;19.880;2022-11-20T15:50:47;249.90;;;134.60;;
18267;SDS011;9260;49.998;19.880;2022-11-20T16:00:57;261.00;;;128.37;;
18267;SDS011;9260;49.998;19.880;2022-11-20T16:11:01;274.03;;;134.23;;
18267;SDS011;9260;49.998;19.880;2022-11-20T16:21:10;264.90;;;131.07;;
18267;SDS011;9260;49.998;19.880;2022-11-20T16:31:15;263.30;;;132.47;;
18267;SDS011;9260;49.998;19.880;2022-11-20T16:41:22;267.87;;;132.77;;
18267;SDS011;9260;49.998;19.880;2022-11-20T16:51:29;286.50;;;136.70;;
18267;SDS011;9260;49.998;19.880;2022-11-20T17:01:37;290.53;;;143.37;;
18267;SDS011;9260;49.998;19.880;2022-11-20T17:11:43;281.37;;;143.20;;
18267;SDS011;9260;49.998;19.880;2022-11-20T17:21:48;294.03;;;145.03;;
18267;SDS011;9260;49.998;19.880;2022-11-20T17:31:52;280.00;;;137.77;;
18267;SDS011;9260;49.998;19.880;2022-11-20T17:41:57;272.33;;;132.97;;
18267;SDS011;9260;49.998;19.880;2022-11-20T17:52:18;276.57;;;135.23;;
18267;SDS011;9260;49.998;19.880;2022-11-20T18:02:23;277.97;;;144.03;;
18267;SDS011;9260;49.998;19.880;2022-11-20T18:12:27;265.23;;;134.33;;
18267;SDS011;9260;49.998;19.880;2022-11-20T18:22:31;277.77;;;140.43;;
18267;SDS011;9260;49.998;19.880;2022-11-20T18:32:35;285.10;;;158.93;;
18267;SDS011;9260;49.998;19.880;2022-11-20T18:42:40;269.87;;;139.30;;
18267;SDS011;9260;49.998;19.880;2022-11-20T18:53:01;267.87;;;133.93;;
18267;SDS011;9260;49.998;19.880;2022-11-20T19:03:06;273.90;;;140.53;;
18267;SDS011;9260;49.998;19.880;2022-11-20T19:13:09;266.77;;;136.03;;
18267;SDS011;9260;49.998;19.880;2022-11-20T19:23:14;258.50;;;126.63;;
18267;SDS011;9260;49.998;19.880;2022-11-20T19:33:22;264.00;;;132.13;;
18267;SDS011;9260;49.998;19.880;2022-11-20T19:43:27;257.60;;;120.97;;
18267;SDS011;9260;49.998;19.880;2022-11-20T19:53:30;267.77;;;135.80;;
18267;SDS011;9260;49.998;19.880;2022-11-20T20:03:35;249.63;;;125.47;;
18267;SDS011;9260;49.998;19.880;2022-11-20T20:13:40;261.80;;;123.57;;
18267;SDS011;9260;49.998;19.880;2022-11-20T20:23:48;266.47;;;130.23;;
18267;SDS011;9260;49.998;19.880;2022-11-20T20:33:53;253.33;;;127.07;;
18267;SDS011;9260;49.998;19.880;2022-11-20T20:43:59;265.00;;;130.40;;
18267;SDS011;9260;49.998;19.880;2022-11-20T20:54:22;270.93;;;133.20;;
18267;SDS011;9260;49.998;19.880;2022-11-20T21:04:26;260.07;;;127.27;;
18267;SDS011;9260;49.998;19.880;2022-11-20T21:14:30;276.33;;;145.80;;
18267;SDS011;9260;49.998;19.880;2022-11-20T21:24:35;315.77;;;166.07;;
18267;SDS011;9260;49.998;19.880;2022-11-20T21:34:39;316.27;;;155.23;;
18267;SDS011;9260;49.998;19.880;2022-11-20T21:44:44;320.27;;;156.87;;
18267;SDS011;9260;49.998;19.880;2022-11-20T21:54:48;314.23;;;156.17;;
18267;SDS011;9260;49.998;19.880;2022-11-20T22:04:53;324.57;;;164.27;;
18267;SDS011;9260;49.998;19.880;2022-11-20T22:14:56;325.20;;;159.03;;
18267;SDS011;9260;49.998;19.880;2022-11-20T22:25:01;316.67;;;160.73;;
18267;SDS011;9260;49.998;19.880;2022-11-20T22:35:05;317.87;;;150.47;;
18267;SDS011;9260;49.998;19.880;2022-11-20T22:45:11;300.00;;;143.30;;
18267;SDS011;9260;49.998;19.880;2022-11-20T22:55:14;316.67;;;151.27;;
18267;SDS011;9260;49.998;19.880;2022-11-20T23:05:19;284.83;;;136.33;;
18267;SDS011;9260;49.998;19.880;2022-11-20T23:15:23;295.00;;;139.67;;
18267;SDS011;9260;49.998;19.880;2022-11-20T23:25:28;291.53;;;133.03;;
18267;SDS011;9260;49.998;19.880;2022-11-20T23:35:31;288.30;;;141.30;;
18267;SDS011;9260;49.998;19.880;2022-11-20T23:45:41;289.10;;;141.43;;
18267;SDS011;9260;49.998;19.880;2022-11-20T23:55:45;285.00;;;139.67;;
